Etusivu
METAR-TAF:

METAR-TAF

Lentoasemat :

Mutsu, Japani

Leveyspiiri: 41-14N, Pituuspiiri: 141-08E, korkeus merenpinnasta: 7 m

Tämänhetkinen sää

Tämä raportti tehtiin 13 tuntia ja 10 minuuttia sitten, kello 11.26 UTC
Tuuli 10 kn idästä, vaihdellen idän ja kaakon välillä
Lämpötila 10°C
Kosteus 66%
Ilmanpaine 1009 hPa
Näkyvyys 10 km tai enemmän
Muutamia pilviä 3000 ft:n korkeudessa
Hajonneita pilviä 5000 ft:n korkeudessa

METAR: RJSO 251126Z 10010KT 080V140 9999 FEW030 BKN050 10/04 Q1009 RMK 2CU030 7SC050 A2980

Aika: 09:36 (00:36 UTC)


TAF: puuttuu

Säähavainnot ja -ennusteet yli 4000 lentoasemalta (METAR- ja TAF-raportit).

Käytössä olevat sääasemat on merkitty karttaan keltaisilla ja punaisilla pisteillä.

Aseta hiiri pisteen päälle nähdäksesi sääaseman nimen.

Klikkaa sitten nähdäksesi säähavainnot ja -ennusteet.

Kartan vaihtaminen: klikkaa mustalla rastilla varustettuja vihreitä pisteitä, niin voit zoomata sisään; viivalla varustettua vihreää pistettä, niin voit zoomata ulos tai vihreitä nuolia, niin pääset viereisille kartoille.


METAR-TAF: